sensor_id;sensor_type;location;lat;lon;timestamp;pressure;altitude;pressure_sealevel;temperature;humidity
74975;BME280;64061;50.836;19.138;2022-11-15T00:00:27;98850.34;;;19.81;63.22
74975;BME280;64061;50.836;19.138;2022-11-15T00:03:51;98848.41;;;19.81;63.28
74975;BME280;64061;50.836;19.138;2022-11-15T00:07:13;98843.22;;;19.80;63.15
74975;BME280;64061;50.836;19.138;2022-11-15T00:10:55;98837.19;;;19.78;63.10
74975;BME280;64061;50.836;19.138;2022-11-15T00:14:18;98831.44;;;19.79;63.37
74975;BME280;64061;50.836;19.138;2022-11-15T00:17:41;98834.72;;;19.81;63.31
74975;BME280;64061;50.836;19.138;2022-11-15T00:21:05;98827.59;;;19.80;63.37
74975;BME280;64061;50.836;19.138;2022-11-15T00:24:29;98820.50;;;19.79;63.24
74975;BME280;64061;50.836;19.138;2022-11-15T00:27:55;98832.81;;;19.82;63.38
74975;BME280;64061;50.836;19.138;2022-11-15T00:31:17;98822.41;;;19.79;63.56
74975;BME280;64061;50.836;19.138;2022-11-15T00:34:41;98819.41;;;19.80;63.56
74975;BME280;64061;50.836;19.138;2022-11-15T00:38:03;98815.28;;;19.78;63.54
74975;BME280;64061;50.836;19.138;2022-11-15T00:41:25;98811.75;;;19.77;63.50
74975;BME280;64061;50.836;19.138;2022-11-15T00:44:47;98808.19;;;19.77;63.56
74975;BME280;64061;50.836;19.138;2022-11-15T00:48:10;98813.66;;;19.77;63.50
74975;BME280;64061;50.836;19.138;2022-11-15T00:51:34;98803.53;;;19.77;63.32
74975;BME280;64061;50.836;19.138;2022-11-15T00:54:56;98790.41;;;19.74;63.20
74975;BME280;64061;50.836;19.138;2022-11-15T00:58:19;98785.47;;;19.76;63.42
74975;BME280;64061;50.836;19.138;2022-11-15T01:01:41;98781.09;;;19.75;63.47
74975;BME280;64061;50.836;19.138;2022-11-15T01:05:04;98770.13;;;19.75;63.49
74975;BME280;64061;50.836;19.138;2022-11-15T01:08:29;98772.88;;;19.75;63.32
74975;BME280;64061;50.836;19.138;2022-11-15T01:11:51;98771.22;;;19.74;63.23
74975;BME280;64061;50.836;19.138;2022-11-15T01:15:14;98767.13;;;19.72;63.23
74975;BME280;64061;50.836;19.138;2022-11-15T01:18:36;98762.47;;;19.72;63.51
74975;BME280;64061;50.836;19.138;2022-11-15T01:21:59;98760.03;;;19.71;63.32
74975;BME280;64061;50.836;19.138;2022-11-15T01:25:23;98760.84;;;19.71;63.29
74975;BME280;64061;50.836;19.138;2022-11-15T01:28:45;98748.28;;;19.70;63.29
74975;BME280;64061;50.836;19.138;2022-11-15T01:32:07;98740.88;;;19.71;63.27
74975;BME280;64061;50.836;19.138;2022-11-15T01:35:30;98749.06;;;19.71;63.01
74975;BME280;64061;50.836;19.138;2022-11-15T01:38:53;98738.94;;;19.71;62.87
74975;BME280;64061;50.836;19.138;2022-11-15T01:42:18;98740.59;;;19.72;62.73
74975;BME280;64061;50.836;19.138;2022-11-15T01:45:40;98734.28;;;19.72;62.72
74975;BME280;64061;50.836;19.138;2022-11-15T01:49:05;98736.75;;;19.73;62.72
74975;BME280;64061;50.836;19.138;2022-11-15T01:52:34;98721.69;;;19.71;62.81
74975;BME280;64061;50.836;19.138;2022-11-15T01:56:01;98725.25;;;19.71;62.67
74975;BME280;64061;50.836;19.138;2022-11-15T01:59:27;98717.88;;;19.72;62.66
74975;BME280;64061;50.836;19.138;2022-11-15T02:02:51;98707.22;;;19.70;62.85
74975;BME280;64061;50.836;19.138;2022-11-15T02:06:13;98714.63;;;19.70;62.77
74975;BME280;64061;50.836;19.138;2022-11-15T02:09:37;98707.22;;;19.70;62.67
74975;BME280;64061;50.836;19.138;2022-11-15T02:13:01;98690.81;;;19.70;62.87
74975;BME280;64061;50.836;19.138;2022-11-15T02:16:33;98695.41;;;19.75;62.48
74975;BME280;64061;50.836;19.138;2022-11-15T02:24:28;98683.38;;;19.71;62.68
74975;BME280;64061;50.836;19.138;2022-11-15T02:28:22;98676.31;;;19.70;62.68
74975;BME280;64061;50.836;19.138;2022-11-15T02:32:09;98679.31;;;19.68;62.75
74975;BME280;64061;50.836;19.138;2022-11-15T02:35:44;98671.38;;;19.67;62.92
74975;BME280;64061;50.836;19.138;2022-11-15T02:39:20;98671.13;;;19.68;62.78
74975;BME280;64061;50.836;19.138;2022-11-15T02:42:52;98661.53;;;19.66;62.86
74975;BME280;64061;50.836;19.138;2022-11-15T02:46:39;98650.88;;;19.64;62.73
74975;BME280;64061;50.836;19.138;2022-11-15T02:50:27;98649.25;;;19.63;62.63
74975;BME280;64061;50.836;19.138;2022-11-15T02:53:52;98645.13;;;19.61;62.64
74975;BME280;64061;50.836;19.138;2022-11-15T02:57:16;98644.59;;;19.64;62.83
74975;BME280;64061;50.836;19.138;2022-11-15T03:00:49;98640.50;;;19.61;62.73
74975;BME280;64061;50.836;19.138;2022-11-15T03:04:28;98636.66;;;19.62;62.65
74975;BME280;64061;50.836;19.138;2022-11-15T03:08:06;98638.03;;;19.60;62.83
74975;BME280;64061;50.836;19.138;2022-11-15T03:11:38;98635.56;;;19.58;62.68
74975;BME280;64061;50.836;19.138;2022-11-15T03:15:08;98629.28;;;19.57;62.72
74975;BME280;64061;50.836;19.138;2022-11-15T03:18:41;98628.78;;;19.55;62.82
74975;BME280;64061;50.836;19.138;2022-11-15T03:22:11;98624.94;;;19.56;62.43
74975;BME280;64061;50.836;19.138;2022-11-15T03:25:43;98617.53;;;19.57;62.47
74975;BME280;64061;50.836;19.138;2022-11-15T03:29:13;98612.63;;;19.54;62.63
74975;BME280;64061;50.836;19.138;2022-11-15T03:32:42;98599.22;;;19.52;62.58
74975;BME280;64061;50.836;19.138;2022-11-15T03:36:08;98604.97;;;19.51;62.40
74975;BME280;64061;50.836;19.138;2022-11-15T03:39:30;98606.09;;;19.50;62.41
74975;BME280;64061;50.836;19.138;2022-11-15T03:43:00;98593.75;;;19.52;62.40
74975;BME280;64061;50.836;19.138;2022-11-15T03:46:31;98595.38;;;19.48;62.59
74975;BME280;64061;50.836;19.138;2022-11-15T03:49:59;98593.50;;;19.49;62.25
74975;BME280;64061;50.836;19.138;2022-11-15T03:53:27;98593.75;;;19.47;62.83
74975;BME280;64061;50.836;19.138;2022-11-15T03:56:52;98596.75;;;19.46;62.73
74975;BME280;64061;50.836;19.138;2022-11-15T04:00:15;98593.75;;;19.47;62.45
74975;BME280;64061;50.836;19.138;2022-11-15T04:03:38;98594.31;;;19.44;62.55
74975;BME280;64061;50.836;19.138;2022-11-15T04:07:00;98588.56;;;19.46;62.75
74975;BME280;64061;50.836;19.138;2022-11-15T04:10:22;98585.00;;;19.45;62.17
74975;BME280;64061;50.836;19.138;2022-11-15T04:13:44;98589.16;;;19.43;62.32
74975;BME280;64061;50.836;19.138;2022-11-15T04:17:08;98586.09;;;19.44;62.31
74975;BME280;64061;50.836;19.138;2022-11-15T04:20:30;98581.75;;;19.43;62.25
74975;BME280;64061;50.836;19.138;2022-11-15T04:24:11;98583.97;;;19.41;62.33
74975;BME280;64061;50.836;19.138;2022-11-15T04:27:35;98580.13;;;19.42;62.27
74975;BME280;64061;50.836;19.138;2022-11-15T04:30:57;98575.75;;;19.41;62.27
74975;BME280;64061;50.836;19.138;2022-11-15T04:34:21;98570.81;;;19.43;62.10
74975;BME280;64061;50.836;19.138;2022-11-15T04:37:43;98577.66;;;19.41;62.06
74975;BME280;64061;50.836;19.138;2022-11-15T04:41:09;98569.47;;;19.41;62.19
74975;BME280;64061;50.836;19.138;2022-11-15T04:44:31;98568.63;;;19.40;62.20
74975;BME280;64061;50.836;19.138;2022-11-15T04:47:53;98569.47;;;19.41;62.63
74975;BME280;64061;50.836;19.138;2022-11-15T04:51:17;98560.16;;;19.42;62.04
74975;BME280;64061;50.836;19.138;2022-11-15T04:54:39;98561.53;;;19.39;62.04
74975;BME280;64061;50.836;19.138;2022-11-15T04:58:02;98564.53;;;19.38;62.07
74975;BME280;64061;50.836;19.138;2022-11-15T05:01:24;98559.91;;;19.38;61.94
74975;BME280;64061;50.836;19.138;2022-11-15T05:04:47;98553.59;;;19.38;62.00
74975;BME280;64061;50.836;19.138;2022-11-15T05:08:10;98549.50;;;19.40;61.94
74975;BME280;64061;50.836;19.138;2022-11-15T05:11:32;98542.66;;;19.38;61.76
74975;BME280;64061;50.836;19.138;2022-11-15T05:14:54;98546.22;;;19.38;61.85
74975;BME280;64061;50.836;19.138;2022-11-15T05:18:16;98550.06;;;19.37;61.81
74975;BME280;64061;50.836;19.138;2022-11-15T05:21:43;98551.97;;;19.37;61.95
74975;BME280;64061;50.836;19.138;2022-11-15T05:25:07;98545.41;;;19.38;61.90
74975;BME280;64061;50.836;19.138;2022-11-15T05:28:30;98549.50;;;19.35;62.01
74975;BME280;64061;50.836;19.138;2022-11-15T05:31:52;98551.44;;;19.35;61.95
74975;BME280;64061;50.836;19.138;2022-11-15T05:35:19;98542.66;;;19.38;61.80
74975;BME280;64061;50.836;19.138;2022-11-15T05:38:48;98544.31;;;19.34;61.92
74975;BME280;64061;50.836;19.138;2022-11-15T05:42:14;98542.13;;;19.36;61.73
74975;BME280;64061;50.836;19.138;2022-11-15T05:45:37;98545.41;;;19.33;61.77
74975;BME280;64061;50.836;19.138;2022-11-15T05:48:59;98543.16;;;19.45;61.68
74975;BME280;64061;50.836;19.138;2022-11-15T05:52:25;98544.44;;;19.63;61.40
74975;BME280;64061;50.836;19.138;2022-11-15T05:55:51;98543.03;;;19.70;61.13
74975;BME280;64061;50.836;19.138;2022-11-15T05:59:16;98551.16;;;19.80;60.86
74975;BME280;64061;50.836;19.138;2022-11-15T06:02:39;98553.00;;;19.85;60.82
74975;BME280;64061;50.836;19.138;2022-11-15T06:06:01;98546.16;;;19.87;60.73
74975;BME280;64061;50.836;19.138;2022-11-15T06:09:23;98552.69;;;19.91;60.51
74975;BME280;64061;50.836;19.138;2022-11-15T06:12:46;98547.75;;;19.93;60.49
74975;BME280;64061;50.836;19.138;2022-11-15T06:16:09;98546.06;;;19.98;60.30
74975;BME280;64061;50.836;19.138;2022-11-15T06:19:31;98539.19;;;20.00;60.13
74975;BME280;64061;50.836;19.138;2022-11-15T06:22:56;98549.81;;;20.07;59.96
74975;BME280;64061;50.836;19.138;2022-11-15T06:26:20;98552.56;;;20.07;60.13
74975;BME280;64061;50.836;19.138;2022-11-15T06:29:42;98549.25;;;20.10;59.91
74975;BME280;64061;50.836;19.138;2022-11-15T06:33:05;98550.28;;;20.14;59.84
74975;BME280;64061;50.836;19.138;2022-11-15T06:36:29;98551.94;;;20.15;59.96
74975;BME280;64061;50.836;19.138;2022-11-15T06:39:51;98556.00;;;20.17;59.84
74975;BME280;64061;50.836;19.138;2022-11-15T06:43:13;98553.00;;;20.19;59.78
74975;BME280;64061;50.836;19.138;2022-11-15T06:46:36;98561.75;;;20.21;59.69
74975;BME280;64061;50.836;19.138;2022-11-15T06:49:59;98554.06;;;20.23;59.40
74975;BME280;64061;50.836;19.138;2022-11-15T06:53:22;98555.66;;;20.24;59.56
74975;BME280;64061;50.836;19.138;2022-11-15T06:56:44;98556.47;;;20.24;59.45
74975;BME280;64061;50.836;19.138;2022-11-15T07:00:07;98556.72;;;20.28;59.38
74975;BME280;64061;50.836;19.138;2022-11-15T07:03:30;98558.38;;;20.29;59.02
74975;BME280;64061;50.836;19.138;2022-11-15T07:06:55;98558.06;;;20.31;58.95
74975;BME280;64061;50.836;19.138;2022-11-15T07:10:17;98550.69;;;20.31;58.76
74975;BME280;64061;50.836;19.138;2022-11-15T07:13:39;98553.94;;;20.33;58.92
74975;BME280;64061;50.836;19.138;2022-11-15T07:17:03;98547.94;;;20.36;58.69
74975;BME280;64061;50.836;19.138;2022-11-15T07:20:26;98542.44;;;20.36;58.54
74975;BME280;64061;50.836;19.138;2022-11-15T07:23:49;98547.31;;;20.39;58.49
74975;BME280;64061;50.836;19.138;2022-11-15T07:27:11;98543.78;;;20.39;58.23
74975;BME280;64061;50.836;19.138;2022-11-15T07:30:33;98548.16;;;20.40;58.63
74975;BME280;64061;50.836;19.138;2022-11-15T07:34:00;98543.47;;;20.40;58.42
74975;BME280;64061;50.836;19.138;2022-11-15T07:37:22;98536.59;;;20.43;58.04
74975;BME280;64061;50.836;19.138;2022-11-15T07:40:46;98532.47;;;20.45;58.23
74975;BME280;64061;50.836;19.138;2022-11-15T07:44:08;98529.75;;;20.45;58.55
74975;BME280;64061;50.836;19.138;2022-11-15T07:47:30;98528.63;;;20.46;58.55
74975;BME280;64061;50.836;19.138;2022-11-15T07:50:52;98523.69;;;20.48;58.34
74975;BME280;64061;50.836;19.138;2022-11-15T07:54:14;98530.81;;;20.49;58.50
74975;BME280;64061;50.836;19.138;2022-11-15T07:57:38;98535.69;;;20.52;58.43
74975;BME280;64061;50.836;19.138;2022-11-15T08:01:02;98531.00;;;20.53;58.03
74975;BME280;64061;50.836;19.138;2022-11-15T08:04:25;98532.94;;;20.52;58.10
74975;BME280;64061;50.836;19.138;2022-11-15T08:07:48;98529.09;;;20.53;58.34
74975;BME280;64061;50.836;19.138;2022-11-15T08:11:12;98518.13;;;20.53;58.51
74975;BME280;64061;50.836;19.138;2022-11-15T08:14:36;98507.69;;;20.55;58.32
74975;BME280;64061;50.836;19.138;2022-11-15T08:18:00;98516.44;;;20.57;59.18
74975;BME280;64061;50.836;19.138;2022-11-15T08:21:24;98500.81;;;20.58;59.64
74975;BME280;64061;50.836;19.138;2022-11-15T08:24:46;98510.38;;;20.60;59.55
74975;BME280;64061;50.836;19.138;2022-11-15T08:28:10;98507.56;;;20.66;59.92
74975;BME280;64061;50.836;19.138;2022-11-15T08:31:34;98499.88;;;20.68;59.64
74975;BME280;64061;50.836;19.138;2022-11-15T08:34:57;98497.94;;;20.68;60.08
74975;BME280;64061;50.836;19.138;2022-11-15T08:38:19;98496.25;;;20.72;60.68
74975;BME280;64061;50.836;19.138;2022-11-15T08:41:41;98501.97;;;20.76;60.54
74975;BME280;64061;50.836;19.138;2022-11-15T08:45:03;98504.44;;;20.77;60.77
74975;BME280;64061;50.836;19.138;2022-11-15T08:48:27;98511.50;;;20.78;60.99
74975;BME280;64061;50.836;19.138;2022-11-15T08:51:51;98503.28;;;20.78;61.15
74975;BME280;64061;50.836;19.138;2022-11-15T08:55:13;98510.13;;;20.81;60.63
74975;BME280;64061;50.836;19.138;2022-11-15T08:58:36;98507.91;;;20.83;61.12
74975;BME280;64061;50.836;19.138;2022-11-15T09:01:59;98501.59;;;20.82;61.35
74975;BME280;64061;50.836;19.138;2022-11-15T09:05:22;98503.47;;;20.87;61.75
74975;BME280;64061;50.836;19.138;2022-11-15T09:08:45;98502.06;;;20.89;62.00
74975;BME280;64061;50.836;19.138;2022-11-15T09:12:11;98496.28;;;20.91;62.08
74975;BME280;64061;50.836;19.138;2022-11-15T09:15:33;98498.44;;;20.94;62.21
74975;BME280;64061;50.836;19.138;2022-11-15T09:18:55;98498.91;;;21.01;62.52
74975;BME280;64061;50.836;19.138;2022-11-15T09:22:19;98494.66;;;21.09;62.39
74975;BME280;64061;50.836;19.138;2022-11-15T09:25:44;98493.25;;;21.11;62.30
74975;BME280;64061;50.836;19.138;2022-11-15T09:29:06;98487.19;;;21.14;62.50
74975;BME280;64061;50.836;19.138;2022-11-15T09:32:28;98486.56;;;21.17;62.35
74975;BME280;64061;50.836;19.138;2022-11-15T09:36:02;98475.88;;;21.21;62.38
74975;BME280;64061;50.836;19.138;2022-11-15T09:39:27;98479.13;;;21.23;62.17
74975;BME280;64061;50.836;19.138;2022-11-15T09:43:02;98474.38;;;21.28;61.64
74975;BME280;64061;50.836;19.138;2022-11-15T09:46:42;98470.00;;;21.27;61.98
74975;BME280;64061;50.836;19.138;2022-11-15T09:50:27;98468.00;;;21.33;61.65
74975;BME280;64061;50.836;19.138;2022-11-15T09:53:43;98448.72;;;21.38;61.53
74975;BME280;64061;50.836;19.138;2022-11-15T09:57:16;98448.50;;;21.34;61.21
74975;BME280;64061;50.836;19.138;2022-11-15T10:00:30;98439.16;;;21.36;60.95
74975;BME280;64061;50.836;19.138;2022-11-15T10:03:56;98431.50;;;21.32;61.03
74975;BME280;64061;50.836;19.138;2022-11-15T10:07:14;98437.50;;;21.34;60.67
74975;BME280;64061;50.836;19.138;2022-11-15T10:10:27;98418.59;;;21.33;60.79
74975;BME280;64061;50.836;19.138;2022-11-15T10:13:43;98410.06;;;21.34;60.36
74975;BME280;64061;50.836;19.138;2022-11-15T10:17:06;98406.22;;;21.36;60.23
74975;BME280;64061;50.836;19.138;2022-11-15T10:20:23;98392.09;;;21.28;60.15
74975;BME280;64061;50.836;19.138;2022-11-15T10:23:29;98398.09;;;21.30;60.15
74975;BME280;64061;50.836;19.138;2022-11-15T10:26:34;98394.22;;;21.31;59.63
74975;BME280;64061;50.836;19.138;2022-11-15T10:29:44;98388.13;;;21.34;59.48
74975;BME280;64061;50.836;19.138;2022-11-15T10:32:49;98381.63;;;21.30;59.77
74975;BME280;64061;50.836;19.138;2022-11-15T10:36:14;98377.66;;;21.37;59.49
74975;BME280;64061;50.836;19.138;2022-11-15T10:39:23;98377.16;;;21.34;59.46
74975;BME280;64061;50.836;19.138;2022-11-15T10:42:29;98369.13;;;21.38;59.37
74975;BME280;64061;50.836;19.138;2022-11-15T10:45:34;98371.00;;;21.43;59.18
74975;BME280;64061;50.836;19.138;2022-11-15T10:48:38;98377.88;;;21.40;60.44
74975;BME280;64061;50.836;19.138;2022-11-15T10:51:44;98357.28;;;21.43;60.76
74975;BME280;64061;50.836;19.138;2022-11-15T10:54:55;98360.19;;;21.46;60.72
74975;BME280;64061;50.836;19.138;2022-11-15T10:58:05;98356.84;;;21.49;60.68
74975;BME280;64061;50.836;19.138;2022-11-15T11:01:26;98343.94;;;21.50;60.55
74975;BME280;64061;50.836;19.138;2022-11-15T11:04:49;98360.03;;;21.56;59.90
74975;BME280;64061;50.836;19.138;2022-11-15T11:07:56;98349.66;;;21.53;60.15
74975;BME280;64061;50.836;19.138;2022-11-15T11:11:04;98352.09;;;21.55;60.10
74975;BME280;64061;50.836;19.138;2022-11-15T11:14:12;98356.47;;;21.56;59.94
74975;BME280;64061;50.836;19.138;2022-11-15T11:17:29;98358.13;;;21.57;59.39
74975;BME280;64061;50.836;19.138;2022-11-15T11:20:58;98340.63;;;21.53;59.73
74975;BME280;64061;50.836;19.138;2022-11-15T11:24:10;98349.38;;;21.55;59.64
74975;BME280;64061;50.836;19.138;2022-11-15T11:27:33;98342.13;;;21.59;59.45
74975;BME280;64061;50.836;19.138;2022-11-15T11:30:53;98349.25;;;21.60;59.11
74975;BME280;64061;50.836;19.138;2022-11-15T11:34:14;98344.28;;;21.62;59.06
74975;BME280;64061;50.836;19.138;2022-11-15T11:37:30;98332.47;;;21.61;59.19
74975;BME280;64061;50.836;19.138;2022-11-15T11:40:43;98347.31;;;21.60;59.15
74975;BME280;64061;50.836;19.138;2022-11-15T11:44:04;98330.25;;;21.63;58.96
74975;BME280;64061;50.836;19.138;2022-11-15T11:47:23;98334.72;;;21.59;58.99
74975;BME280;64061;50.836;19.138;2022-11-15T11:50:29;98327.91;;;21.57;58.85
74975;BME280;64061;50.836;19.138;2022-11-15T11:53:39;98311.44;;;21.57;58.82
74975;BME280;64061;50.836;19.138;2022-11-15T11:56:50;98308.50;;;21.53;58.71
74975;BME280;64061;50.836;19.138;2022-11-15T12:00:02;98313.16;;;21.53;58.15
74975;BME280;64061;50.836;19.138;2022-11-15T12:03:18;98309.91;;;21.51;58.22
74975;BME280;64061;50.836;19.138;2022-11-15T12:06:35;98304.19;;;21.47;58.42
74975;BME280;64061;50.836;19.138;2022-11-15T12:09:48;98308.06;;;21.46;57.76
74975;BME280;64061;50.836;19.138;2022-11-15T12:13:03;98291.91;;;21.45;56.94
74975;BME280;64061;50.836;19.138;2022-11-15T12:16:14;98301.28;;;21.44;57.40
74975;BME280;64061;50.836;19.138;2022-11-15T12:19:22;98294.44;;;21.41;57.26
74975;BME280;64061;50.836;19.138;2022-11-15T12:22:35;98288.34;;;21.44;56.73
74975;BME280;64061;50.836;19.138;2022-11-15T12:25:46;98278.28;;;21.40;56.66
74975;BME280;64061;50.836;19.138;2022-11-15T12:28:55;98279.09;;;21.40;56.40
74975;BME280;64061;50.836;19.138;2022-11-15T12:32:20;98283.78;;;21.40;56.18
74975;BME280;64061;50.836;19.138;2022-11-15T12:35:35;98289.56;;;21.38;56.02
74975;BME280;64061;50.836;19.138;2022-11-15T12:38:53;98281.84;;;21.40;55.88
74975;BME280;64061;50.836;19.138;2022-11-15T12:45:44;98268.81;;;21.32;56.00
74975;BME280;64061;50.836;19.138;2022-11-15T12:48:51;98266.78;;;21.38;56.06
74975;BME280;64061;50.836;19.138;2022-11-15T12:52:08;98260.09;;;21.44;55.50
74975;BME280;64061;50.836;19.138;2022-11-15T12:55:32;98261.91;;;21.48;55.37
74975;BME280;64061;50.836;19.138;2022-11-15T12:58:42;98260.00;;;21.49;55.54
74975;BME280;64061;50.836;19.138;2022-11-15T13:02:00;98247.81;;;21.55;55.21
74975;BME280;64061;50.836;19.138;2022-11-15T13:05:52;98247.69;;;21.60;55.02
74975;BME280;64061;50.836;19.138;2022-11-15T13:09:00;98252.19;;;21.56;55.13
74975;BME280;64061;50.836;19.138;2022-11-15T13:12:07;98254.19;;;21.64;54.91
74975;BME280;64061;50.836;19.138;2022-11-15T13:15:33;98246.19;;;21.67;54.79
74975;BME280;64061;50.836;19.138;2022-11-15T13:19:03;98248.09;;;21.67;54.98
74975;BME280;64061;50.836;19.138;2022-11-15T13:22:10;98236.63;;;21.65;54.72
74975;BME280;64061;50.836;19.138;2022-11-15T13:29:17;98231.63;;;21.67;54.84
74975;BME280;64061;50.836;19.138;2022-11-15T13:32:23;98231.63;;;21.67;55.08
74975;BME280;64061;50.836;19.138;2022-11-15T13:35:29;98238.13;;;21.71;55.46
74975;BME280;64061;50.836;19.138;2022-11-15T13:38:41;98228.78;;;21.72;55.53
74975;BME280;64061;50.836;19.138;2022-11-15T13:41:47;98236.19;;;21.72;55.49
74975;BME280;64061;50.836;19.138;2022-11-15T13:44:59;98233.97;;;21.74;55.46
74975;BME280;64061;50.836;19.138;2022-11-15T13:48:04;98232.44;;;21.67;55.86
74975;BME280;64061;50.836;19.138;2022-11-15T13:51:15;98232.16;;;21.69;55.81
74975;BME280;64061;50.836;19.138;2022-11-15T13:54:29;98226.16;;;21.67;55.45
74975;BME280;64061;50.836;19.138;2022-11-15T13:57:41;98228.06;;;21.66;55.68
74975;BME280;64061;50.836;19.138;2022-11-15T14:00:58;98222.28;;;21.68;55.46
74975;BME280;64061;50.836;19.138;2022-11-15T14:04:03;98224.31;;;21.62;56.34
74975;BME280;64061;50.836;19.138;2022-11-15T14:07:16;98211.09;;;21.64;56.40
74975;BME280;64061;50.836;19.138;2022-11-15T14:10:27;98218.00;;;21.62;56.51
74975;BME280;64061;50.836;19.138;2022-11-15T14:13:33;98217.63;;;21.55;56.93
74975;BME280;64061;50.836;19.138;2022-11-15T14:16:40;98218.13;;;21.57;56.76
74975;BME280;64061;50.836;19.138;2022-11-15T14:19:45;98217.09;;;21.53;56.88
74975;BME280;64061;50.836;19.138;2022-11-15T14:22:54;98202.56;;;21.52;56.79
74975;BME280;64061;50.836;19.138;2022-11-15T14:25:59;98200.72;;;21.48;57.12
74975;BME280;64061;50.836;19.138;2022-11-15T14:29:24;98192.41;;;21.53;56.80
74975;BME280;64061;50.836;19.138;2022-11-15T14:32:43;98192.19;;;21.49;56.76
74975;BME280;64061;50.836;19.138;2022-11-15T14:35:49;98177.78;;;21.44;56.93
74975;BME280;64061;50.836;19.138;2022-11-15T14:38:53;98177.78;;;21.44;57.29
74975;BME280;64061;50.836;19.138;2022-11-15T14:41:57;98173.06;;;21.44;57.29
74975;BME280;64061;50.836;19.138;2022-11-15T14:45:01;98171.16;;;21.45;57.28
74975;BME280;64061;50.836;19.138;2022-11-15T14:48:06;98171.97;;;21.45;57.29
74975;BME280;64061;50.836;19.138;2022-11-15T14:51:12;98170.03;;;21.46;57.44
74975;BME280;64061;50.836;19.138;2022-11-15T14:54:17;98165.19;;;21.43;57.38
74975;BME280;64061;50.836;19.138;2022-11-15T14:57:20;98162.75;;;21.41;57.94
74975;BME280;64061;50.836;19.138;2022-11-15T15:00:25;98157.56;;;21.40;57.62
74975;BME280;64061;50.836;19.138;2022-11-15T15:03:39;98163.56;;;21.42;57.60
74975;BME280;64061;50.836;19.138;2022-11-15T15:06:43;98153.19;;;21.39;57.66
74975;BME280;64061;50.836;19.138;2022-11-15T15:09:47;98142.22;;;21.39;57.96
74975;BME280;64061;50.836;19.138;2022-11-15T15:12:51;98141.41;;;21.38;58.34
74975;BME280;64061;50.836;19.138;2022-11-15T15:15:54;98138.97;;;21.37;58.02
74975;BME280;64061;50.836;19.138;2022-11-15T15:18:59;98142.81;;;21.36;58.39
74975;BME280;64061;50.836;19.138;2022-11-15T15:22:03;98123.75;;;21.30;58.48
74975;BME280;64061;50.836;19.138;2022-11-15T15:25:20;98125.34;;;21.31;58.45
74975;BME280;64061;50.836;19.138;2022-11-15T15:28:25;98124.13;;;21.24;58.91
74975;BME280;64061;50.836;19.138;2022-11-15T15:31:35;98122.00;;;21.21;59.10
74975;BME280;64061;50.836;19.138;2022-11-15T15:34:40;98113.47;;;21.22;59.47
74975;BME280;64061;50.836;19.138;2022-11-15T15:37:45;98114.06;;;21.19;59.67
74975;BME280;64061;50.836;19.138;2022-11-15T15:40:49;98106.44;;;21.16;59.62
74975;BME280;64061;50.836;19.138;2022-11-15T15:43:53;98112.53;;;21.13;60.30
74975;BME280;64061;50.836;19.138;2022-11-15T15:46:56;98117.50;;;21.11;60.06
74975;BME280;64061;50.836;19.138;2022-11-15T15:50:03;98115.06;;;21.10;60.32
74975;BME280;64061;50.836;19.138;2022-11-15T15:53:07;98114.03;;;21.06;60.46
74975;BME280;64061;50.836;19.138;2022-11-15T15:56:12;98117.09;;;21.04;60.64
74975;BME280;64061;50.836;19.138;2022-11-15T15:59:16;98116.59;;;21.02;60.62
74975;BME280;64061;50.836;19.138;2022-11-15T16:02:19;98112.53;;;20.99;60.68
74975;BME280;64061;50.836;19.138;2022-11-15T16:05:24;98117.22;;;20.99;60.62
74975;BME280;64061;50.836;19.138;2022-11-15T16:08:28;98117.81;;;20.96;61.10
74975;BME280;64061;50.836;19.138;2022-11-15T16:11:52;98111.63;;;20.90;61.15
74975;BME280;64061;50.836;19.138;2022-11-15T16:14:57;98105.00;;;20.91;61.03
74975;BME280;64061;50.836;19.138;2022-11-15T16:18:01;98106.94;;;20.91;60.96
74975;BME280;64061;50.836;19.138;2022-11-15T16:21:07;98117.91;;;20.91;61.11
74975;BME280;64061;50.836;19.138;2022-11-15T16:24:11;98115.78;;;20.88;61.22
74975;BME280;64061;50.836;19.138;2022-11-15T16:27:16;98118.81;;;20.86;61.36
74975;BME280;64061;50.836;19.138;2022-11-15T16:30:22;98122.69;;;20.85;61.35
74975;BME280;64061;50.836;19.138;2022-11-15T16:33:26;98114.25;;;20.82;61.14
74975;BME280;64061;50.836;19.138;2022-11-15T16:36:33;98109.28;;;20.84;61.04
74975;BME280;64061;50.836;19.138;2022-11-15T16:39:37;98114.53;;;20.80;61.39
74975;BME280;64061;50.836;19.138;2022-11-15T16:42:41;98105.81;;;20.78;61.22
74975;BME280;64061;50.836;19.138;2022-11-15T16:45:45;98117.59;;;20.79;61.53
74975;BME280;64061;50.836;19.138;2022-11-15T16:48:48;98106.13;;;20.77;61.29
74975;BME280;64061;50.836;19.138;2022-11-15T16:51:54;98097.91;;;20.77;61.18
74975;BME280;64061;50.836;19.138;2022-11-15T16:54:58;98105.63;;;20.75;61.12
74975;BME280;64061;50.836;19.138;2022-11-15T16:58:01;98107.53;;;20.74;61.28
74975;BME280;64061;50.836;19.138;2022-11-15T17:01:05;98104.00;;;20.74;61.11
74975;BME280;64061;50.836;19.138;2022-11-15T17:04:10;98094.13;;;20.73;61.41
74975;BME280;64061;50.836;19.138;2022-11-15T17:07:15;98090.28;;;20.74;61.23
74975;BME280;64061;50.836;19.138;2022-11-15T17:10:20;98086.22;;;20.71;61.14
74975;BME280;64061;50.836;19.138;2022-11-15T17:13:24;98082.66;;;20.71;61.23
74975;BME280;64061;50.836;19.138;2022-11-15T17:16:28;98086.53;;;20.70;61.08
74975;BME280;64061;50.836;19.138;2022-11-15T17:19:31;98081.34;;;20.68;60.85
74975;BME280;64061;50.836;19.138;2022-11-15T17:22:36;98079.63;;;20.72;61.42
74975;BME280;64061;50.836;19.138;2022-11-15T17:25:40;98083.88;;;20.78;62.04
74975;BME280;64061;50.836;19.138;2022-11-15T17:28:44;98082.16;;;20.82;62.64